Terminal Aerodrome Forecast
Issued by NWS

Home | Current Version | Previous Version | Text Only | Print | Product List | Glossary On
Versions: 1 2 3 4 5 6 7 8 9 10 11 12 13 14 15 16
046
FTUS46 KMTR 211737
TAFOAK
TAF
KOAK 211737Z 2118/2224 08008KT P6SM FEW025
     FM212100 27008KT P6SM FEW030
     FM220200 29006KT P6SM FEW030 FEW050
     FM220500 VRB03KT P6SM SCT025 SCT050
     FM221100 30009KT P6SM SCT020 BKN040
     FM222000 28014G21KT P6SM FEW025 FEW050
     FM222300 27020G28KT P6SM FEW030=

USA.gov is the U.S. government's official web portal to all federal, state and local government web resources and services.